Terminal Aerodrome Forecast
Issued by NWS St Louis, MO

Home | Current Version | Previous Version | Text Only | Print | Product List | Glossary On
Versions: 1 2 3 4 5 6 7 8 9 10 11 12 13 14 15 16 17 18 19 20 21 22 23 24 25 26 27 28 29 30 31
000
FTUS43 KLSX 040200 AAB
TAFSTL
TAF AMD
KSTL 040204Z 0402/0506 33009KT P6SM OVC020
      TEMPO 0402/0406 4SM -RA BR OVC012
     FM040600 34014G20KT P6SM OVC025
     FM041600 35012G20KT P6SM SCT015 OVC100=

USA.gov is the U.S. government's official web portal to all federal, state and local government web resources and services.